CLT weather

Public forecast

Using degrees Fahrenheit for public forecast. Weather courtesy of forecast.io.

Current aviation weather report (METAR) for Charlotte Douglas International Airport

Retrieved 2020/08/15 01:52 UTC (33 minutes ago):

KCLT 150152Z 10007KT 10SM FEW030 FEW070 BKN250 26/22 A2995 RMK AO2 SLP134 LTG DSNT SE CB DSNT SE T02610217

Aviation forecast (TAF) for Charlotte Douglas International Airport

Retrieved 2020-08-15 00:36 UTC (2 hours ago):

TAF KCLT 142334Z 1500/1606 17003KT P6SM VCSH SCT040 BKN120 FM150800 VRB03KT 6SM BR SCT007 OVC015 FM151600 15005KT P6SM VCSH BKN025 FM152000 17005KT P6SM -SHRA BKN035 PROB30 1521/1603 3SM TSRA BR OVC020CB FM160400 VRB04KT 6SM BR VCSH BKN025